createdAt,value
2018-06-23T00:02:24.845Z,4.30
2018-06-23T00:06:18.821Z,3.33
2018-06-23T00:10:12.981Z,3.00
2018-06-23T00:14:07.036Z,2.57
2018-06-23T00:18:01.240Z,3.93
2018-06-23T00:21:55.181Z,3.17
2018-06-23T00:25:54.533Z,3.33
2018-06-23T00:29:49.493Z,2.97
2018-06-23T00:33:43.474Z,3.23
2018-06-23T00:37:37.327Z,2.90
2018-06-23T00:41:31.365Z,3.33
2018-06-23T00:45:24.978Z,2.90
2018-06-23T00:49:18.975Z,2.70
2018-06-23T00:53:12.906Z,3.58
2018-06-23T00:57:06.842Z,2.77
2018-06-23T01:01:00.927Z,2.63
2018-06-23T01:04:59.696Z,2.97
2018-06-23T01:08:53.760Z,3.07
2018-06-23T01:12:48.027Z,3.43
2018-06-23T01:16:41.950Z,3.53
2018-06-23T01:20:37.099Z,3.23
2018-06-23T01:24:31.107Z,2.90
2018-06-23T01:28:25.086Z,3.55
2018-06-23T01:32:19.695Z,3.02
2018-06-23T01:36:13.875Z,3.40
2018-06-23T01:40:08.806Z,2.97
2018-06-23T01:44:03.095Z,3.13
2018-06-23T01:47:56.533Z,2.90
2018-06-23T01:51:50.496Z,2.97
2018-06-23T01:55:44.510Z,2.80
2018-06-23T01:59:38.665Z,3.10
2018-06-23T02:03:32.691Z,3.23
2018-06-23T02:07:26.848Z,3.27
2018-06-23T02:11:20.967Z,4.27
2018-06-23T02:15:14.965Z,3.17
2018-06-23T02:19:14.248Z,4.10
2018-06-23T02:23:13.622Z,2.53
2018-06-23T02:27:13.035Z,3.47
2018-06-23T02:31:12.358Z,3.17
2018-06-23T02:35:07.700Z,3.77
2018-06-23T02:39:01.821Z,3.30
2018-06-23T02:42:55.823Z,3.50
2018-06-23T02:46:49.270Z,3.57
2018-06-23T02:50:43.223Z,4.03
2018-06-23T02:54:39.993Z,3.50
2018-06-23T02:58:34.136Z,3.77
2018-06-23T03:02:28.100Z,3.27
2018-06-23T03:06:22.167Z,3.17
2018-06-23T03:10:16.252Z,3.20
2018-06-23T03:14:10.383Z,3.00
2018-06-23T03:18:04.370Z,3.70
2018-06-23T03:21:58.450Z,3.37
2018-06-23T03:25:52.845Z,3.63
2018-06-23T03:29:46.794Z,3.60
2018-06-23T03:33:40.787Z,3.35
2018-06-23T03:37:34.862Z,3.67
2018-06-23T03:41:28.899Z,3.20
2018-06-23T03:45:21.788Z,3.00
2018-06-23T03:49:15.382Z,3.20
2018-06-23T03:53:09.467Z,3.73
2018-06-23T03:57:03.679Z,3.23
2018-06-23T04:00:58.483Z,3.30
2018-06-23T04:04:53.894Z,3.23
2018-06-23T04:08:47.943Z,3.60
2018-06-23T04:12:41.994Z,3.27
2018-06-23T04:16:36.022Z,3.60
2018-06-23T04:20:30.258Z,3.30
2018-06-23T04:24:24.214Z,3.43
2018-06-23T04:28:18.192Z,3.50
2018-06-23T04:32:12.258Z,3.83
2018-06-23T04:36:06.235Z,4.00
2018-06-23T04:40:00.875Z,6.13
2018-06-23T04:43:54.765Z,4.60
2018-06-23T04:47:50.400Z,4.70
2018-06-23T04:51:44.418Z,3.87
2018-06-23T04:55:38.550Z,5.47
2018-06-23T04:59:32.657Z,4.67
2018-06-23T05:03:26.579Z,4.57
2018-06-23T05:07:20.552Z,3.73
2018-06-23T05:11:14.567Z,4.53
2018-06-23T05:15:08.542Z,3.93
2018-06-23T05:19:02.571Z,4.30
2018-06-23T05:22:57.352Z,4.47
2018-06-23T05:26:51.679Z,3.83
2018-06-23T05:30:45.753Z,5.08
2018-06-23T05:34:39.654Z,4.67
2018-06-23T05:38:33.639Z,4.73
2018-06-23T05:42:27.736Z,5.05
2018-06-23T05:46:21.441Z,4.50
2018-06-23T05:50:15.687Z,4.43
2018-06-23T05:54:10.904Z,8.00
2018-06-23T05:58:04.097Z,4.63
2018-06-23T06:01:57.200Z,4.50
2018-06-23T06:05:52.758Z,5.37
2018-06-23T06:09:47.118Z,6.13
2018-06-23T06:13:41.355Z,5.73
2018-06-23T06:17:37.573Z,5.70
2018-06-23T06:21:31.596Z,5.20
2018-06-23T06:25:25.959Z,4.87
2018-06-23T06:29:20.644Z,5.00
2018-06-23T06:33:14.612Z,5.50
2018-06-23T06:37:08.707Z,5.53
2018-06-23T06:41:02.870Z,5.40
2018-06-23T06:44:57.266Z,5.70
2018-06-23T06:48:50.934Z,6.93
2018-06-23T06:52:44.984Z,6.57
2018-06-23T06:56:39.236Z,5.93
2018-06-23T07:00:33.288Z,5.93
2018-06-23T07:04:27.258Z,5.27
2018-06-23T07:08:21.442Z,6.03
2018-06-23T07:12:16.069Z,6.07
2018-06-23T07:16:10.141Z,5.53
2018-06-23T07:20:04.209Z,6.20
2018-06-23T07:23:59.799Z,5.77
2018-06-23T07:27:53.739Z,5.33
2018-06-23T07:31:47.979Z,6.00
2018-06-23T07:35:42.045Z,5.30
2018-06-23T07:39:36.069Z,5.33
2018-06-23T07:43:30.041Z,5.30
2018-06-23T07:47:23.483Z,5.53
2018-06-23T07:51:17.797Z,4.17
2018-06-23T07:55:11.983Z,4.80
2018-06-23T07:59:06.009Z,4.37
2018-06-23T08:03:00.119Z,4.77
2018-06-23T08:06:56.193Z,5.57
2018-06-23T08:10:50.158Z,5.73
2018-06-23T08:14:44.231Z,4.90
2018-06-23T08:18:39.143Z,2.87
2018-06-23T08:22:33.007Z,2.85
2018-06-23T08:26:27.147Z,2.90
2018-06-23T08:30:21.224Z,3.37
2018-06-23T08:34:15.325Z,2.83
2018-06-23T08:38:11.532Z,3.33
2018-06-23T08:42:05.620Z,2.83
2018-06-23T08:45:59.140Z,2.83
2018-06-23T08:49:53.171Z,2.57
2018-06-23T08:53:47.138Z,2.77
2018-06-23T08:57:41.315Z,2.35
2018-06-23T09:01:35.514Z,2.50
2018-06-23T09:05:29.530Z,1.90
2018-06-23T09:09:23.581Z,2.80
2018-06-23T09:13:17.932Z,2.47
2018-06-23T09:17:12.274Z,2.07
2018-06-23T09:21:06.376Z,2.07
2018-06-23T09:25:00.652Z,2.70
2018-06-23T09:28:54.608Z,3.43
2018-06-23T09:32:56.740Z,3.40
2018-06-23T09:36:52.757Z,4.47
2018-06-23T09:40:47.338Z,2.47
2018-06-23T09:44:42.201Z,2.30
2018-06-23T09:48:35.764Z,2.47
2018-06-23T09:52:30.191Z,3.42
2018-06-23T09:56:24.753Z,3.10
2018-06-23T10:00:23.188Z,3.60
2018-06-23T10:04:19.364Z,3.20
2018-06-23T10:08:13.433Z,2.67
2018-06-23T10:12:07.503Z,2.83
2018-06-23T10:16:01.901Z,3.20
2018-06-23T10:19:56.603Z,2.87
2018-06-23T10:23:51.151Z,2.87
2018-06-23T10:27:45.547Z,2.30
2018-06-23T10:31:39.543Z,2.85
2018-06-23T10:35:33.985Z,3.03
2018-06-23T10:39:32.819Z,2.10
2018-06-23T10:43:32.461Z,3.13
2018-06-23T10:47:26.832Z,2.45
2018-06-23T10:51:20.960Z,2.07
2018-06-23T10:55:15.622Z,2.77
2018-06-23T10:59:09.684Z,2.40
2018-06-23T11:03:04.098Z,2.77
2018-06-23T11:15:28.422Z,2.57
2018-06-23T11:19:24.261Z,2.47
2018-06-23T11:23:19.077Z,2.00
2018-06-23T11:27:14.646Z,1.87
2018-06-23T11:31:08.663Z,2.10
2018-06-23T11:35:03.152Z,1.70
2018-06-23T11:38:58.170Z,1.80
2018-06-23T11:42:52.963Z,1.90
2018-06-23T11:46:46.620Z,1.98
2018-06-23T11:50:41.441Z,2.47
2018-06-23T11:54:35.570Z,2.00
2018-06-23T11:58:29.594Z,2.37
2018-06-23T12:02:23.769Z,2.20
2018-06-23T12:06:21.303Z,1.80
2018-06-23T12:10:15.417Z,2.00
2018-06-23T12:14:09.562Z,1.83
2018-06-23T12:18:03.926Z,2.00
2018-06-23T12:22:00.191Z,1.83
2018-06-23T12:25:54.426Z,2.00
2018-06-23T12:29:49.073Z,1.77
2018-06-23T12:33:43.359Z,1.92
2018-06-23T12:37:37.623Z,1.77
2018-06-23T12:41:31.957Z,2.00
2018-06-23T12:45:25.913Z,2.00
2018-06-23T12:49:19.687Z,2.13
2018-06-23T12:53:15.721Z,2.23
2018-06-23T12:57:10.444Z,2.30
2018-06-23T13:01:04.546Z,2.77
2018-06-23T13:04:59.237Z,2.80
2018-06-23T13:08:53.459Z,3.17
2018-06-23T13:12:47.847Z,4.15
2018-06-23T13:16:41.983Z,2.80
2018-06-23T13:20:36.200Z,3.53
2018-06-23T13:24:30.466Z,3.23
2018-06-23T13:28:24.354Z,3.10
2018-06-23T13:32:18.657Z,3.40
2018-06-23T13:36:13.276Z,4.50
2018-06-23T13:40:07.085Z,3.77
2018-06-23T13:44:01.272Z,2.80
2018-06-23T13:47:54.813Z,2.83
2018-06-23T13:51:50.134Z,2.43
2018-06-23T13:55:44.156Z,2.25
2018-06-23T13:59:38.431Z,2.27
2018-06-23T14:03:32.415Z,2.00
2018-06-23T14:07:26.581Z,2.20
2018-06-23T14:11:24.555Z,2.03
2018-06-23T14:15:19.131Z,2.33
2018-06-23T14:19:13.707Z,2.73
2018-06-23T14:23:08.165Z,2.70
2018-06-23T14:27:03.064Z,3.60
2018-06-23T14:30:56.888Z,2.10
2018-06-23T14:34:50.734Z,1.90
2018-06-23T14:38:45.340Z,1.80
2018-06-23T14:42:40.094Z,2.03
2018-06-23T14:46:33.371Z,2.33
2018-06-23T14:50:27.530Z,2.20
2018-06-23T14:54:21.729Z,1.90
2018-06-23T14:58:15.946Z,1.90
2018-06-23T15:02:10.106Z,2.60
2018-06-23T15:06:07.673Z,2.17
2018-06-23T15:10:08.298Z,2.10
2018-06-23T15:14:05.829Z,1.40
2018-06-23T15:18:00.006Z,1.80
2018-06-23T15:21:54.075Z,2.10
2018-06-23T15:25:48.693Z,1.87
2018-06-23T15:29:43.427Z,1.30
2018-06-23T15:33:37.564Z,1.83
2018-06-23T15:37:31.320Z,2.63
2018-06-23T15:41:25.328Z,2.00
2018-06-23T15:45:19.379Z,1.80
2018-06-23T15:49:13.375Z,1.40
2018-06-23T15:53:07.492Z,1.60
2018-06-23T15:57:01.619Z,2.53
2018-06-23T16:00:55.769Z,1.90
2018-06-23T16:04:49.455Z,2.17
2018-06-23T16:08:43.463Z,1.80
2018-06-23T16:12:37.589Z,2.77
2018-06-23T16:16:32.509Z,2.20
2018-06-23T16:20:26.578Z,2.50
2018-06-23T16:24:22.661Z,1.70
2018-06-23T16:28:17.298Z,1.90
2018-06-23T16:32:11.422Z,2.10
2018-06-23T16:36:05.492Z,2.47
2018-06-23T16:39:58.758Z,2.63
2018-06-23T16:43:52.805Z,2.30
2018-06-23T16:47:50.727Z,2.40
2018-06-23T16:51:45.297Z,2.03
2018-06-23T16:55:39.821Z,2.40
2018-06-23T16:59:35.184Z,2.27
2018-06-23T17:03:29.299Z,3.33
2018-06-23T17:07:23.327Z,2.33
2018-06-23T17:11:18.586Z,2.50
2018-06-23T17:15:12.655Z,1.20
2018-06-23T17:19:06.723Z,1.87
2018-06-23T17:23:01.203Z,1.77
2018-06-23T17:26:55.147Z,1.80
2018-06-23T17:30:49.759Z,1.83
2018-06-23T17:34:43.803Z,1.77
2018-06-23T17:38:41.173Z,1.80
2018-06-23T17:42:35.162Z,2.13
2018-06-23T17:46:29.468Z,1.70
2018-06-23T17:50:23.811Z,1.70
2018-06-23T17:54:17.851Z,2.00
2018-06-23T17:58:12.672Z,1.90
2018-06-23T18:02:09.485Z,1.90
2018-06-23T18:06:04.677Z,1.60
2018-06-23T18:10:00.420Z,1.80
2018-06-23T18:13:54.571Z,1.53
2018-06-23T18:17:48.686Z,1.43
2018-06-23T18:21:42.625Z,2.03
2018-06-23T18:25:37.944Z,1.50
2018-06-23T18:29:31.938Z,1.63
2018-06-23T18:33:26.027Z,1.80
2018-06-23T18:37:19.968Z,1.70
2018-06-23T18:41:14.026Z,1.53
2018-06-23T18:45:08.175Z,1.70
2018-06-23T18:49:01.792Z,1.70
2018-06-23T18:52:56.087Z,1.60
2018-06-23T18:56:50.201Z,1.70
2018-06-23T19:00:44.494Z,1.50
2018-06-23T19:04:38.480Z,1.83
2018-06-23T19:08:32.582Z,1.70
2018-06-23T19:12:26.615Z,2.03
2018-06-23T19:16:20.634Z,1.40
2018-06-23T19:20:15.139Z,2.40
2018-06-23T19:24:09.251Z,1.82
2018-06-23T19:28:03.249Z,2.00
2018-06-23T19:31:58.396Z,2.00
2018-06-23T19:35:52.668Z,2.00
2018-06-23T19:39:46.649Z,2.13
2018-06-23T19:43:40.584Z,2.20
2018-06-23T19:47:34.360Z,2.13
2018-06-23T19:51:28.342Z,2.50
2018-06-23T19:55:22.248Z,2.03
2018-06-23T19:59:15.885Z,2.00
2018-06-23T20:03:09.878Z,2.40
2018-06-23T20:07:04.325Z,2.17
2018-06-23T20:10:58.979Z,2.40
2018-06-23T20:14:53.649Z,2.47
2018-06-23T20:18:47.609Z,2.20
2018-06-23T20:22:41.748Z,2.50
2018-06-23T20:26:35.688Z,2.50
2018-06-23T20:30:31.025Z,2.87
2018-06-23T20:34:25.606Z,2.93
2018-06-23T20:38:19.678Z,2.27
2018-06-23T20:42:16.095Z,2.63
2018-06-23T20:46:10.228Z,3.23
2018-06-23T20:50:03.929Z,2.57
2018-06-23T20:53:58.487Z,3.87
2018-06-23T20:57:52.953Z,3.93
2018-06-23T21:01:47.150Z,4.80
2018-06-23T21:05:41.282Z,4.30
2018-06-23T21:09:35.311Z,3.80
2018-06-23T21:13:29.734Z,3.50
2018-06-23T21:21:48.031Z,4.30
2018-06-23T21:25:42.075Z,4.63
2018-06-23T21:29:39.129Z,4.40
2018-06-23T21:33:33.222Z,4.93
2018-06-23T21:37:27.519Z,5.33
2018-06-23T21:41:22.335Z,4.47
2018-06-23T21:45:16.473Z,4.70
2018-06-23T21:49:09.964Z,3.57
2018-06-23T21:53:04.071Z,2.73
2018-06-23T21:56:58.346Z,3.50
2018-06-23T22:00:52.410Z,4.53
2018-06-23T22:04:46.504Z,4.77
2018-06-23T22:08:40.552Z,5.10
2018-06-23T22:12:34.755Z,5.20
2018-06-23T22:16:28.834Z,4.77
2018-06-23T22:20:22.724Z,5.17
2018-06-23T22:24:16.802Z,6.00
2018-06-23T22:28:10.871Z,4.83
2018-06-23T22:32:06.574Z,4.20
2018-06-23T22:36:00.600Z,3.70
2018-06-23T22:39:55.720Z,4.23
2018-06-23T22:43:49.789Z,3.93
2018-06-23T22:47:44.132Z,3.77
2018-06-23T22:51:39.067Z,3.33
2018-06-23T22:55:33.283Z,3.67
2018-06-23T22:59:27.288Z,3.90
2018-06-23T23:03:21.362Z,4.47
2018-06-23T23:07:15.361Z,5.03
2018-06-23T23:11:09.451Z,4.13
2018-06-23T23:15:03.564Z,4.37
2018-06-23T23:18:57.569Z,4.27
2018-06-23T23:22:51.621Z,3.97
2018-06-23T23:26:45.584Z,3.80
2018-06-23T23:30:39.645Z,4.23
2018-06-23T23:34:37.878Z,4.40
2018-06-23T23:38:31.792Z,4.93
2018-06-23T23:42:25.970Z,4.40
2018-06-23T23:46:19.994Z,4.77
2018-06-23T23:50:13.746Z,4.00
2018-06-23T23:54:08.207Z,4.40
2018-06-23T23:58:02.295Z,4.73
